createdAt,value
2022-10-22T00:00:09.952Z,14.60
2022-10-22T00:02:37.351Z,14.70
2022-10-22T00:05:05.336Z,14.70
2022-10-22T00:07:33.055Z,14.70
2022-10-22T00:10:00.268Z,14.60
2022-10-22T00:12:28.208Z,14.60
2022-10-22T00:14:55.411Z,14.70
2022-10-22T00:17:22.752Z,14.60
2022-10-22T00:19:49.935Z,14.60
2022-10-22T00:22:17.472Z,14.60
2022-10-22T00:24:44.808Z,14.70
2022-10-22T00:27:12.896Z,14.70
2022-10-22T00:29:40.128Z,14.80
2022-10-22T00:32:07.664Z,14.70
2022-10-22T00:34:34.986Z,14.70
2022-10-22T00:37:02.195Z,14.70
2022-10-22T00:39:29.782Z,14.70
2022-10-22T00:41:58.393Z,14.70
2022-10-22T00:45:03.069Z,14.60
2022-10-22T00:47:41.494Z,14.60
2022-10-22T00:50:28.930Z,14.60
2022-10-22T00:52:57.515Z,14.50
2022-10-22T00:55:27.173Z,14.30
2022-10-22T00:57:55.609Z,14.30
2022-10-22T01:00:23.276Z,14.30
2022-10-22T01:02:52.516Z,14.20
2022-10-22T01:05:20.055Z,14.20
2022-10-22T01:07:53.094Z,14.10
2022-10-22T01:10:42.528Z,14.10
2022-10-22T01:13:23.743Z,14.10
2022-10-22T01:15:59.644Z,14.00
2022-10-22T01:18:52.312Z,14.00
2022-10-22T01:21:33.077Z,14.00
2022-10-22T01:24:17.196Z,14.00
2022-10-22T01:27:21.053Z,14.00
2022-10-22T01:29:57.995Z,14.00
2022-10-22T01:32:27.696Z,14.00
2022-10-22T01:35:01.710Z,14.00
2022-10-22T01:37:31.529Z,14.00
2022-10-22T01:40:01.639Z,13.90
2022-10-22T01:42:28.888Z,14.10
2022-10-22T01:44:56.060Z,14.00
2022-10-22T01:47:41.036Z,13.90
2022-10-22T01:50:28.497Z,14.00
2022-10-22T01:53:01.175Z,14.00
2022-10-22T01:55:28.280Z,14.00
2022-10-22T01:58:05.894Z,13.90
2022-10-22T02:00:35.567Z,14.00
2022-10-22T02:03:10.603Z,14.00
2022-10-22T02:05:54.115Z,14.00
2022-10-22T02:14:29.924Z,14.10
2022-10-22T02:16:59.771Z,14.00
2022-10-22T02:19:28.582Z,14.00
2022-10-22T02:21:55.870Z,14.00
2022-10-22T02:24:24.060Z,14.10
2022-10-22T02:27:09.601Z,14.10
2022-10-22T02:47:20.363Z,14.00
2022-10-22T02:49:47.728Z,14.20
2022-10-22T02:52:14.960Z,14.20
2022-10-22T02:54:42.268Z,14.20
2022-10-22T02:57:09.566Z,14.20
2022-10-22T02:59:36.952Z,14.10
2022-10-22T03:02:04.738Z,14.10
2022-10-22T03:04:32.192Z,14.00
2022-10-22T03:06:59.493Z,14.20
2022-10-22T03:09:26.777Z,14.10
2022-10-22T03:11:54.108Z,14.00
2022-10-22T03:14:21.443Z,13.90
2022-10-22T03:16:48.719Z,14.00
2022-10-22T03:19:16.164Z,14.00
2022-10-22T03:21:53.657Z,14.00
2022-10-22T03:24:28.590Z,14.00
2022-10-22T03:26:56.325Z,14.00
2022-10-22T03:29:26.101Z,14.00
2022-10-22T03:31:54.164Z,14.00
2022-10-22T03:34:21.914Z,14.00
2022-10-22T03:36:49.787Z,14.10
2022-10-22T03:39:18.812Z,14.00
2022-10-22T03:41:48.198Z,14.00
2022-10-22T03:44:17.377Z,13.90
2022-10-22T03:46:45.151Z,13.70
2022-10-22T03:49:12.521Z,13.70
2022-10-22T03:51:39.917Z,13.80
2022-10-22T03:54:07.116Z,13.70
2022-10-22T03:56:34.883Z,13.70
2022-10-22T03:59:02.448Z,13.70
2022-10-22T04:01:30.861Z,13.60
2022-10-22T04:03:58.713Z,13.60
2022-10-22T04:06:26.034Z,13.50
2022-10-22T04:08:53.267Z,13.50
2022-10-22T04:11:20.646Z,13.50
2022-10-22T04:13:47.948Z,13.50
2022-10-22T04:16:19.131Z,13.40
2022-10-22T04:18:48.300Z,13.40
2022-10-22T04:21:19.676Z,13.30
2022-10-22T04:23:49.991Z,13.20
2022-10-22T04:26:18.544Z,13.10
2022-10-22T04:28:47.614Z,13.20
2022-10-22T04:31:18.179Z,13.00
2022-10-22T04:33:45.839Z,13.10
2022-10-22T04:36:18.575Z,13.00
2022-10-22T04:38:48.199Z,13.00
2022-10-22T04:41:18.804Z,13.00
2022-10-22T04:43:46.784Z,12.90
2022-10-22T04:46:15.737Z,12.90
2022-10-22T04:48:44.732Z,12.90
2022-10-22T04:51:16.299Z,12.80
2022-10-22T04:53:43.940Z,12.90
2022-10-22T04:56:19.811Z,12.90
2022-10-22T04:58:53.076Z,12.90
2022-10-22T05:01:25.902Z,13.00
2022-10-22T05:03:55.156Z,12.90
2022-10-22T05:06:23.776Z,12.90
2022-10-22T05:11:46.121Z,12.90
2022-10-22T05:14:14.822Z,12.80
2022-10-22T05:16:42.126Z,12.90
2022-10-22T05:19:14.443Z,12.70
2022-10-22T05:21:41.585Z,12.70
2022-10-22T05:24:09.005Z,12.70
2022-10-22T05:26:36.369Z,12.70
2022-10-22T05:29:03.605Z,12.70
2022-10-22T05:31:30.831Z,12.70
2022-10-22T05:33:58.134Z,12.70
2022-10-22T05:36:25.916Z,12.70
2022-10-22T05:38:53.617Z,12.70
2022-10-22T05:41:23.683Z,12.60
2022-10-22T05:43:51.525Z,12.60
2022-10-22T05:46:22.779Z,12.60
2022-10-22T05:48:56.064Z,12.60
2022-10-22T05:51:24.596Z,12.60
2022-10-22T05:53:57.386Z,12.60
2022-10-22T05:56:25.807Z,12.50
2022-10-22T05:58:53.298Z,12.60
2022-10-22T06:01:22.442Z,12.60
2022-10-22T06:03:53.008Z,12.60
2022-10-22T06:06:34.711Z,12.60
2022-10-22T06:09:04.924Z,12.60
2022-10-22T06:11:34.992Z,12.70
2022-10-22T06:14:03.577Z,12.70
2022-10-22T06:16:31.288Z,12.70
2022-10-22T06:19:04.006Z,12.70
2022-10-22T06:21:32.597Z,12.80
2022-10-22T06:24:01.775Z,12.80
2022-10-22T06:26:29.600Z,12.80
2022-10-22T06:28:57.391Z,12.80
2022-10-22T06:31:25.694Z,12.80
2022-10-22T06:33:53.205Z,12.80
2022-10-22T06:36:23.010Z,12.80
2022-10-22T06:38:54.771Z,12.80
2022-10-22T06:41:25.649Z,12.80
2022-10-22T06:43:57.271Z,12.80
2022-10-22T06:46:26.498Z,12.80
2022-10-22T06:48:56.666Z,12.80
2022-10-22T06:51:24.186Z,12.80
2022-10-22T06:53:51.400Z,12.90
2022-10-22T06:56:21.660Z,12.90
2022-10-22T06:58:50.518Z,12.90
2022-10-22T07:01:19.896Z,13.10
2022-10-22T07:03:47.567Z,13.10
2022-10-22T07:06:15.273Z,13.10
2022-10-22T07:08:42.936Z,13.10
2022-10-22T07:11:11.581Z,13.20
2022-10-22T07:13:39.284Z,13.20
2022-10-22T07:16:07.666Z,13.20
2022-10-22T07:18:36.062Z,13.10
2022-10-22T07:21:04.099Z,13.10
2022-10-22T07:23:31.530Z,13.20
2022-10-22T07:25:59.187Z,13.20
2022-10-22T07:28:27.853Z,13.20
2022-10-22T07:30:55.101Z,13.20
2022-10-22T07:33:22.483Z,13.30
2022-10-22T07:35:49.678Z,13.30
2022-10-22T07:38:16.828Z,13.40
2022-10-22T07:40:44.584Z,13.40
2022-10-22T07:43:11.784Z,13.50
2022-10-22T07:45:38.984Z,13.60
2022-10-22T07:48:06.491Z,13.70
2022-10-22T07:50:33.747Z,13.80
2022-10-22T07:53:00.959Z,13.90
2022-10-22T07:55:28.164Z,13.90
2022-10-22T07:57:55.444Z,14.10
2022-10-22T08:00:25.198Z,14.10
2022-10-22T08:02:52.768Z,14.20
2022-10-22T08:05:19.940Z,14.30
2022-10-22T08:07:47.096Z,14.40
2022-10-22T08:10:14.415Z,14.40
2022-10-22T08:12:42.185Z,14.50
2022-10-22T08:15:10.088Z,14.50
2022-10-22T08:17:37.435Z,14.50
2022-10-22T08:20:05.297Z,14.50
2022-10-22T08:22:32.483Z,14.50
2022-10-22T08:25:00.405Z,14.50
2022-10-22T08:27:27.653Z,14.60
2022-10-22T08:29:54.823Z,14.70
2022-10-22T08:32:22.395Z,14.50
2022-10-22T08:34:49.834Z,14.50
2022-10-22T08:37:17.706Z,14.50
2022-10-22T08:39:45.263Z,14.50
2022-10-22T08:42:31.122Z,14.60
2022-10-22T08:45:37.721Z,14.50
2022-10-22T08:48:30.832Z,14.50
2022-10-22T08:50:58.755Z,14.50
2022-10-22T08:53:36.953Z,14.60
2022-10-22T08:56:04.422Z,14.60
2022-10-22T08:58:34.424Z,14.70
2022-10-22T09:01:12.864Z,14.70
2022-10-22T09:04:13.105Z,14.70
2022-10-22T09:06:44.166Z,14.80
2022-10-22T09:09:18.792Z,14.90
2022-10-22T09:11:51.625Z,14.90
2022-10-22T09:14:22.413Z,15.00
2022-10-22T09:16:55.073Z,15.00
2022-10-22T09:19:46.615Z,15.00
2022-10-22T09:22:41.750Z,15.00
2022-10-22T09:25:21.199Z,14.90
2022-10-22T09:27:49.420Z,15.00
2022-10-22T09:30:23.539Z,14.90
2022-10-22T09:33:00.252Z,15.10
2022-10-22T09:35:27.472Z,15.20
2022-10-22T09:37:56.735Z,15.30
2022-10-22T09:40:24.169Z,15.40
2022-10-22T09:42:51.391Z,15.50
2022-10-22T09:45:25.245Z,15.50
2022-10-22T09:48:26.545Z,15.60
2022-10-22T09:51:19.511Z,15.60
2022-10-22T09:53:56.000Z,15.70
2022-10-22T09:56:28.435Z,15.70
2022-10-22T09:58:57.634Z,15.80
2022-10-22T10:01:32.131Z,15.80
2022-10-22T10:04:11.621Z,15.80
2022-10-22T10:06:41.480Z,15.90
2022-10-22T10:09:21.304Z,15.90
2022-10-22T10:12:09.043Z,15.80
2022-10-22T10:14:58.095Z,15.80
2022-10-22T10:18:00.512Z,15.80
2022-10-22T10:20:46.261Z,15.80
2022-10-22T10:23:21.816Z,15.80
2022-10-22T10:26:14.280Z,15.80
2022-10-22T10:29:10.137Z,15.90
2022-10-22T10:32:01.760Z,15.90
2022-10-22T10:34:55.683Z,15.90
2022-10-22T10:37:27.811Z,15.90
2022-10-22T10:40:16.764Z,15.90
2022-10-22T10:42:52.111Z,16.00
2022-10-22T10:45:40.909Z,16.10
2022-10-22T10:48:30.662Z,16.20
2022-10-22T10:51:19.116Z,16.30
2022-10-22T10:53:52.022Z,16.40
2022-10-22T10:56:45.423Z,16.60
2022-10-22T10:59:39.248Z,16.70
2022-10-22T11:02:28.091Z,16.90
2022-10-22T11:05:21.287Z,17.00
2022-10-22T11:07:59.842Z,17.20
2022-10-22T11:10:51.280Z,17.30
2022-10-22T11:13:55.725Z,17.20
2022-10-22T11:16:32.368Z,17.30
2022-10-22T11:19:50.943Z,17.30
2022-10-22T11:22:29.761Z,17.30
2022-10-22T11:25:05.637Z,17.40
2022-10-22T11:28:05.489Z,17.30
2022-10-22T11:30:36.179Z,17.30
2022-10-22T11:33:07.480Z,17.40
2022-10-22T11:35:38.747Z,17.50
2022-10-22T11:38:07.788Z,17.40
2022-10-22T11:40:43.879Z,17.30
2022-10-22T11:43:25.338Z,17.30
2022-10-22T11:46:08.838Z,17.40
2022-10-22T11:48:38.204Z,17.50
2022-10-22T11:51:35.322Z,17.50
2022-10-22T11:54:34.788Z,17.60
2022-10-22T11:57:21.454Z,17.70
2022-10-22T11:59:59.917Z,17.80
2022-10-22T12:02:42.762Z,18.10
2022-10-22T12:05:22.523Z,18.30
2022-10-22T12:07:57.125Z,18.50
2022-10-22T12:10:29.442Z,18.50
2022-10-22T12:13:15.447Z,18.60
2022-10-22T12:15:52.772Z,18.60
2022-10-22T12:18:25.676Z,18.60
2022-10-22T12:20:53.615Z,18.40
2022-10-22T12:23:24.645Z,18.40
2022-10-22T12:25:51.789Z,18.30
2022-10-22T12:28:19.318Z,18.20
2022-10-22T12:30:47.359Z,18.00
2022-10-22T12:33:22.704Z,18.10
2022-10-22T12:35:53.955Z,18.20
2022-10-22T12:38:23.182Z,18.10
2022-10-22T12:40:51.787Z,18.00
2022-10-22T12:43:30.162Z,17.70
2022-10-22T12:45:59.682Z,17.70
2022-10-22T12:48:34.342Z,17.70
2022-10-22T12:51:04.615Z,17.60
2022-10-22T12:53:47.434Z,17.50
2022-10-22T12:56:20.188Z,17.40
2022-10-22T12:58:56.473Z,17.30
2022-10-22T13:01:32.038Z,17.30
2022-10-22T13:04:37.743Z,17.30
2022-10-22T13:07:17.072Z,17.20
2022-10-22T13:09:55.947Z,17.20
2022-10-22T13:12:28.369Z,17.20
2022-10-22T13:14:55.669Z,17.20
2022-10-22T13:17:42.337Z,17.20
2022-10-22T13:20:27.693Z,17.10
2022-10-22T13:23:03.225Z,17.10
2022-10-22T13:25:37.249Z,17.10
2022-10-22T13:28:10.285Z,17.10
2022-10-22T13:30:39.039Z,17.10
2022-10-22T13:33:28.724Z,17.20
2022-10-22T13:35:56.845Z,17.30
2022-10-22T13:38:26.868Z,17.20
2022-10-22T13:40:54.737Z,17.40
2022-10-22T13:43:22.255Z,17.30
2022-10-22T13:45:54.067Z,17.40
2022-10-22T13:48:23.594Z,17.50
2022-10-22T13:50:52.134Z,17.50
2022-10-22T13:53:22.925Z,17.60
2022-10-22T13:55:50.325Z,17.60
2022-10-22T13:58:20.622Z,17.70
2022-10-22T14:00:51.971Z,17.70
2022-10-22T14:03:21.467Z,17.60
2022-10-22T14:05:49.134Z,17.60
2022-10-22T14:08:18.937Z,17.50
2022-10-22T14:10:46.671Z,17.40
2022-10-22T14:13:15.769Z,17.30
2022-10-22T14:15:45.328Z,17.30
2022-10-22T14:18:24.023Z,17.30
2022-10-22T14:20:57.510Z,17.20
2022-10-22T14:23:27.943Z,17.20
2022-10-22T14:25:55.910Z,17.30
2022-10-22T14:28:23.160Z,17.30
2022-10-22T14:30:51.744Z,17.40
2022-10-22T14:33:31.554Z,17.50
2022-10-22T14:36:00.896Z,17.60
2022-10-22T14:38:29.081Z,17.60
2022-10-22T14:40:57.323Z,17.70
2022-10-22T14:43:27.133Z,17.70
2022-10-22T14:45:54.545Z,17.80
2022-10-22T14:48:21.742Z,17.80
2022-10-22T14:50:49.183Z,17.80
2022-10-22T14:53:19.164Z,17.80
2022-10-22T14:55:47.366Z,17.80
2022-10-22T14:58:14.940Z,17.90
2022-10-22T15:00:43.058Z,18.00
2022-10-22T15:03:11.455Z,17.90
2022-10-22T15:05:44.471Z,17.90
2022-10-22T15:08:14.103Z,17.80
2022-10-22T15:10:41.490Z,17.80
2022-10-22T15:13:09.353Z,17.90
2022-10-22T15:15:40.112Z,17.80
2022-10-22T15:18:07.802Z,17.70
2022-10-22T15:20:35.192Z,17.70
2022-10-22T15:23:02.575Z,17.70
2022-10-22T15:25:29.828Z,17.60
2022-10-22T15:28:01.916Z,17.70
2022-10-22T15:30:31.922Z,17.70
2022-10-22T15:32:59.076Z,17.60
2022-10-22T15:35:28.410Z,17.60
2022-10-22T15:37:55.891Z,17.50
2022-10-22T15:40:23.103Z,17.50
2022-10-22T15:42:50.436Z,17.50
2022-10-22T15:45:17.732Z,17.40
2022-10-22T15:47:47.614Z,17.40
2022-10-22T15:50:15.597Z,17.30
2022-10-22T15:52:42.880Z,17.30
2022-10-22T15:55:10.645Z,17.30
2022-10-22T15:57:39.088Z,17.20
2022-10-22T16:00:07.663Z,17.10
2022-10-22T16:02:39.712Z,17.10
2022-10-22T16:05:07.480Z,17.00
2022-10-22T16:07:34.765Z,16.90
2022-10-22T16:10:01.999Z,16.80
2022-10-22T16:12:29.518Z,16.80
2022-10-22T16:14:56.686Z,16.60
2022-10-22T16:17:24.375Z,16.60
2022-10-22T16:19:51.536Z,16.50
2022-10-22T16:22:18.736Z,16.40
2022-10-22T16:24:45.981Z,16.30
2022-10-22T16:27:13.376Z,16.10
2022-10-22T16:29:40.605Z,16.10
2022-10-22T16:32:08.212Z,15.90
2022-10-22T16:34:35.558Z,15.80
2022-10-22T16:37:02.902Z,15.70
2022-10-22T16:39:30.077Z,15.60
2022-10-22T16:41:57.256Z,15.50
2022-10-22T16:44:24.401Z,15.40
2022-10-22T16:46:51.649Z,15.30
2022-10-22T16:49:18.810Z,15.20
2022-10-22T16:51:45.926Z,15.10
2022-10-22T16:54:14.212Z,15.10
2022-10-22T16:56:41.396Z,15.10
2022-10-22T16:59:08.680Z,14.90
2022-10-22T17:01:40.693Z,14.80
2022-10-22T17:04:08.896Z,14.80
2022-10-22T17:06:36.470Z,14.80
2022-10-22T17:09:04.576Z,14.60
2022-10-22T17:11:36.337Z,14.60
2022-10-22T17:14:05.772Z,14.60
2022-10-22T17:16:32.949Z,14.40
2022-10-22T17:19:04.003Z,14.40
2022-10-22T17:21:31.160Z,14.30
2022-10-22T17:23:58.551Z,14.30
2022-10-22T17:26:26.833Z,14.20
2022-10-22T17:28:54.981Z,14.00
2022-10-22T17:31:28.656Z,13.90
2022-10-22T17:33:57.157Z,13.90
2022-10-22T17:36:24.934Z,13.80
2022-10-22T17:38:54.714Z,13.80
2022-10-22T17:41:25.010Z,13.80
2022-10-22T17:43:52.317Z,13.60
2022-10-22T17:46:25.292Z,13.60
2022-10-22T17:48:58.468Z,13.60
2022-10-22T17:51:27.671Z,13.50
2022-10-22T17:53:55.366Z,13.50
2022-10-22T17:56:25.557Z,13.40
2022-10-22T17:58:53.535Z,13.40
2022-10-22T18:01:32.449Z,13.40
2022-10-22T18:04:03.133Z,13.30
2022-10-22T18:06:30.879Z,13.20
2022-10-22T18:08:58.256Z,13.10
2022-10-22T18:11:28.003Z,13.10
2022-10-22T18:13:56.715Z,13.10
2022-10-22T18:16:25.028Z,13.10
2022-10-22T18:18:54.754Z,13.10
2022-10-22T18:21:23.953Z,13.10
2022-10-22T18:23:51.247Z,13.10
2022-10-22T18:26:21.422Z,13.10
2022-10-22T18:28:51.486Z,13.00
2022-10-22T18:31:23.523Z,12.90
2022-10-22T18:33:51.084Z,12.90
2022-10-22T18:36:20.972Z,12.80
2022-10-22T18:38:50.850Z,12.80
2022-10-22T18:41:18.219Z,12.80
2022-10-22T18:43:53.844Z,12.70
2022-10-22T18:46:21.420Z,12.70
2022-10-22T18:48:48.601Z,12.70
2022-10-22T18:51:16.168Z,12.70
2022-10-22T18:53:53.702Z,12.70
2022-10-22T18:56:30.591Z,12.60
2022-10-22T18:58:57.830Z,12.60
2022-10-22T19:01:29.277Z,12.60
2022-10-22T19:03:56.852Z,12.60
2022-10-22T19:06:37.003Z,12.60
2022-10-22T19:09:04.755Z,12.50
2022-10-22T19:11:32.248Z,12.50
2022-10-22T19:13:59.435Z,12.40
2022-10-22T19:16:28.391Z,12.30
2022-10-22T19:19:03.596Z,12.30
2022-10-22T19:21:31.088Z,12.20
2022-10-22T19:23:59.922Z,12.20
2022-10-22T19:26:28.190Z,12.20
2022-10-22T19:28:56.447Z,12.20
2022-10-22T19:31:25.788Z,12.10
2022-10-22T19:33:55.242Z,12.10
2022-10-22T19:36:32.850Z,12.00
2022-10-22T19:39:01.856Z,12.10
2022-10-22T19:41:30.808Z,12.00
2022-10-22T19:43:59.411Z,12.00
2022-10-22T19:46:28.467Z,12.00
2022-10-22T19:48:57.101Z,12.00
2022-10-22T19:51:33.962Z,12.00
2022-10-22T19:54:07.118Z,11.80
2022-10-22T19:56:35.617Z,11.80
2022-10-22T19:59:04.278Z,11.80
2022-10-22T20:01:32.022Z,11.70
2022-10-22T20:04:00.180Z,11.70
2022-10-22T20:06:27.745Z,11.60
2022-10-22T20:08:56.197Z,11.60
2022-10-22T20:11:27.360Z,11.60
2022-10-22T20:13:55.098Z,11.60
2022-10-22T20:16:25.127Z,11.60
2022-10-22T20:18:52.652Z,11.60
2022-10-22T20:21:20.757Z,11.60
2022-10-22T20:23:52.143Z,11.60
2022-10-22T20:26:20.244Z,11.60
2022-10-22T20:28:47.409Z,11.60
2022-10-22T20:31:18.935Z,11.60
2022-10-22T20:33:47.249Z,11.60
2022-10-22T20:36:17.785Z,11.50
2022-10-22T20:38:47.920Z,11.60
2022-10-22T20:41:18.353Z,11.60
2022-10-22T20:43:47.230Z,11.50
2022-10-22T20:46:22.305Z,11.40
2022-10-22T20:48:55.752Z,11.30
2022-10-22T20:51:22.912Z,11.30
2022-10-22T20:53:50.640Z,11.30
2022-10-22T20:56:19.044Z,11.40
2022-10-22T20:58:49.639Z,11.40
2022-10-22T21:01:22.039Z,11.40
2022-10-22T21:03:50.752Z,11.40
2022-10-22T21:06:20.853Z,11.40
2022-10-22T21:08:48.134Z,11.40
2022-10-22T21:11:15.432Z,11.40
2022-10-22T21:13:42.672Z,11.30
2022-10-22T21:16:11.658Z,11.50
2022-10-22T21:18:39.388Z,11.50
2022-10-22T21:21:07.452Z,11.40
2022-10-22T21:23:35.999Z,11.60
2022-10-22T21:26:03.545Z,11.50
2022-10-22T21:28:35.470Z,11.50
2022-10-22T21:31:04.972Z,11.40
2022-10-22T21:33:35.167Z,11.40
2022-10-22T21:36:02.428Z,11.40
2022-10-22T21:38:29.587Z,11.30
2022-10-22T21:40:56.773Z,11.30
2022-10-22T21:43:24.172Z,11.40
2022-10-22T21:45:51.305Z,11.40
2022-10-22T21:48:18.554Z,11.40
2022-10-22T21:50:45.739Z,11.40
2022-10-22T21:53:13.214Z,11.50
2022-10-22T21:55:41.315Z,11.50
2022-10-22T21:58:08.994Z,11.50
2022-10-22T22:00:36.554Z,11.50
2022-10-22T22:03:06.151Z,11.50
2022-10-22T22:05:34.036Z,11.50
2022-10-22T22:08:01.232Z,11.50
2022-10-22T22:10:29.608Z,11.50
2022-10-22T22:12:57.041Z,11.50
2022-10-22T22:15:24.206Z,11.50
2022-10-22T22:17:51.381Z,11.50
2022-10-22T22:20:18.707Z,11.40
2022-10-22T22:22:45.856Z,11.50
2022-10-22T22:25:13.012Z,11.40
2022-10-22T22:27:40.476Z,11.40
2022-10-22T22:30:08.463Z,11.30
2022-10-22T22:32:35.621Z,11.30
2022-10-22T22:35:02.989Z,11.30
2022-10-22T22:37:30.144Z,11.30
2022-10-22T22:39:57.320Z,11.30
2022-10-22T22:42:24.482Z,11.30
2022-10-22T22:44:51.647Z,11.20
2022-10-22T22:47:18.976Z,11.20
2022-10-22T22:49:46.141Z,11.30
2022-10-22T22:52:13.545Z,11.10
2022-10-22T22:54:40.709Z,11.10
2022-10-22T22:57:07.907Z,11.10
2022-10-22T22:59:35.245Z,11.00
2022-10-22T23:02:02.457Z,11.00
2022-10-22T23:04:30.161Z,11.10
2022-10-22T23:06:57.663Z,11.10
2022-10-22T23:09:24.820Z,10.90
2022-10-22T23:11:52.505Z,10.90
2022-10-22T23:14:20.348Z,10.90
2022-10-22T23:16:50.160Z,10.80
2022-10-22T23:19:21.447Z,10.70
2022-10-22T23:21:51.562Z,10.80
2022-10-22T23:24:22.492Z,10.80
2022-10-22T23:26:51.279Z,10.80
2022-10-22T23:29:21.915Z,10.80
2022-10-22T23:31:51.123Z,10.80
2022-10-22T23:34:24.406Z,10.80
2022-10-22T23:36:52.893Z,10.80
2022-10-22T23:39:22.609Z,10.90
2022-10-22T23:41:50.057Z,10.80
2022-10-22T23:44:17.397Z,10.90
2022-10-22T23:46:44.722Z,10.70
2022-10-22T23:49:12.398Z,10.70
2022-10-22T23:51:40.487Z,10.70
2022-10-22T23:54:11.926Z,10.60
2022-10-22T23:56:39.231Z,10.60
2022-10-22T23:59:07.696Z,10.50
